Time;durP1;ratioP1;P1;durP2;ratioP2;P2;SDS_P1;SDS_P2;PMS_P1;PMS_P2;Temp;Humidity;BMP_temperature;BMP_pressure;BME280_temperature;BME280_humidity;BME280_pressure;Samples;Min_cycle;Max_cycle;Signal;HPM_P1;HPM_P2
2021/04/19 00:00:11;;;;;;;13.05;10.30;;;;;;;10.18;67.40;100651.78;5088383;28;20055;-72
2021/04/19 00:02:38;;;;;;;12.85;10.75;;;;;;;10.13;67.03;100644.34;5096511;28;20485;-72
2021/04/19 00:05:07;;;;;;;10.73;9.30;;;;;;;10.08;67.19;100646.41;5096255;28;20071;-72
2021/04/19 00:07:34;;;;;;;11.07;9.38;;;;;;;10.10;67.24;100644.97;5096265;28;20056;-72
2021/04/19 00:10:01;;;;;;;12.93;8.98;;;;;;;10.12;67.39;100647.44;5095997;28;20063;-72
2021/04/19 00:12:28;;;;;;;9.40;8.40;;;;;;;10.14;66.62;100651.59;5096133;28;20056;-72
2021/04/19 00:14:54;;;;;;;9.43;8.13;;;;;;;10.18;66.48;100646.22;5094886;28;20047;-72
2021/04/19 00:17:21;;;;;;;10.13;8.68;;;;;;;10.20;66.86;100643.13;5095605;28;20059;-72
2021/04/19 00:19:48;;;;;;;9.95;8.82;;;;;;;10.22;66.59;100638.88;5096481;28;20059;-72
2021/04/19 00:22:16;;;;;;;9.32;7.97;;;;;;;10.26;66.81;100645.50;5095763;28;20401;-72
2021/04/19 00:24:43;;;;;;;10.57;8.90;;;;;;;10.26;67.17;100634.34;5083308;28;20061;-72
2021/04/19 00:27:10;;;;;;;9.70;8.70;;;;;;;10.30;66.90;100641.00;5075391;28;20048;-72
2021/04/19 00:29:39;;;;;;;11.05;9.43;;;;;;;10.35;66.96;100637.28;5075492;28;20049;-72
2021/04/19 00:32:07;;;;;;;11.05;9.13;;;;;;;10.35;66.70;100637.28;5075339;28;20060;-72
2021/04/19 00:34:34;;;;;;;10.13;8.55;;;;;;;10.40;66.88;100639.97;5075052;28;20053;-72
2021/04/19 00:37:01;;;;;;;10.32;9.00;;;;;;;10.43;66.85;100642.13;5075152;28;20051;-72
2021/04/19 00:39:30;;;;;;;12.15;9.48;;;;;;;10.42;66.78;100643.28;5087758;28;20052;-72
2021/04/19 00:41:57;;;;;;;10.48;8.38;;;;;;;10.44;66.85;100635.44;5095769;28;20434;-72
2021/04/19 00:44:23;;;;;;;9.50;8.30;;;;;;;10.47;66.70;100634.81;5095581;28;20492;-72
2021/04/19 00:46:50;;;;;;;10.05;8.55;;;;;;;10.46;66.78;100630.38;5095314;28;20059;-72
2021/04/19 00:49:18;;;;;;;9.27;8.00;;;;;;;10.51;66.89;100637.81;5095534;28;20454;-72
2021/04/19 00:51:45;;;;;;;9.80;8.50;;;;;;;10.51;67.26;100627.47;5095276;28;20075;-72
2021/04/19 00:54:13;;;;;;;11.65;8.77;;;;;;;10.54;67.13;100635.22;5094896;28;20393;-72
2021/04/19 00:56:47;;;;;;;11.27;9.25;;;;;;;10.60;66.80;100635.13;5095273;28;20063;-72
2021/04/19 00:59:15;;;;;;;9.55;8.55;;;;;;;10.60;67.21;100637.91;5095648;28;20056;-72
2021/04/19 01:01:42;;;;;;;9.70;8.70;;;;;;;10.60;66.82;100638.72;5095029;28;20074;-72
2021/04/19 01:04:11;;;;;;;10.80;9.20;;;;;;;10.63;66.90;100629.75;5094955;28;20060;-72
2021/04/19 01:06:38;;;;;;;11.43;10.10;;;;;;;10.67;67.01;100632.75;5094529;28;20060;-72
2021/04/19 01:09:06;;;;;;;13.18;9.30;;;;;;;10.69;67.04;100627.69;5094731;28;20056;-72
2021/04/19 01:11:33;;;;;;;11.23;9.73;;;;;;;10.72;67.04;100633.44;5094686;28;20070;-72
2021/04/19 01:14:03;;;;;;;11.15;9.95;;;;;;;10.78;66.62;100631.38;5094416;28;20052;-72
2021/04/19 01:16:30;;;;;;;11.68;9.15;;;;;;;10.82;66.52;100631.59;5094282;28;20052;-72
2021/04/19 01:18:57;;;;;;;10.77;8.90;;;;;;;10.84;66.82;100641.28;5094748;28;20056;-72
2021/04/19 01:21:25;;;;;;;11.43;9.82;;;;;;;10.85;66.88;100634.56;5094133;28;20412;-72
2021/04/19 01:23:52;;;;;;;11.30;9.52;;;;;;;10.90;66.46;100640.03;5087418;28;20044;-72
2021/04/19 01:26:19;;;;;;;10.32;9.23;;;;;;;10.87;66.18;100640.66;5094117;28;20055;-72
2021/04/19 01:28:45;;;;;;;10.07;8.45;;;;;;;10.88;66.58;100644.28;5094459;28;20044;-72
2021/04/19 01:31:12;;;;;;;11.27;8.63;;;;;;;10.89;66.81;100652.31;5091719;28;21449;-72
2021/04/19 01:33:39;;;;;;;11.20;10.00;;;;;;;10.94;67.10;100637.44;5073989;28;20056;-72
2021/04/19 01:36:06;;;;;;;10.90;9.35;;;;;;;10.96;67.03;100644.38;5074235;28;20055;-72
2021/04/19 01:38:34;;;;;;;11.82;9.85;;;;;;;10.97;67.24;100647.97;5073615;28;20045;-72
2021/04/19 01:41:03;;;;;;;11.15;9.95;;;;;;;10.99;67.14;100647.66;5074102;28;20063;-71
2021/04/19 01:43:30;;;;;;;12.45;9.55;;;;;;;10.99;67.58;100647.66;5077898;28;20051;-71
2021/04/19 01:45:59;;;;;;;12.48;10.55;;;;;;;11.01;67.85;100646.22;5094179;28;20127;-72
2021/04/19 01:48:25;;;;;;;11.93;10.18;;;;;;;11.02;67.96;100652.59;5093940;28;20048;-71
2021/04/19 01:50:54;;;;;;;11.57;10.38;;;;;;;11.03;67.77;100640.31;5092790;28;20052;-71
2021/04/19 01:53:22;;;;;;;13.30;11.05;;;;;;;11.01;67.99;100649.00;5094022;28;20056;-72
2021/04/19 01:55:49;;;;;;;15.20;12.52;;;;;;;11.03;68.81;100646.72;5094175;28;20401;-72
2021/04/19 01:58:19;;;;;;;15.15;13.13;;;;;;;11.00;69.36;100646.50;5092449;28;20051;-72
2021/04/19 02:00:50;;;;;;;17.23;14.20;;;;;;;11.03;69.70;100646.72;5093726;28;20459;-72
2021/04/19 02:03:37;;;;;;;15.60;13.93;;;;;;;11.10;69.48;100647.09;5093885;28;20048;-72
2021/04/19 02:06:09;;;;;;;16.73;14.07;;;;;;;11.15;69.78;100648.97;5093833;28;20071;-72
2021/04/19 02:08:46;;;;;;;18.42;15.43;;;;;;;11.16;69.76;100648.63;5093413;28;20044;-72
2021/04/19 02:11:25;;;;;;;18.27;15.70;;;;;;;11.18;70.12;100645.53;5093492;28;20052;-72
2021/04/19 02:14:01;;;;;;;19.33;16.67;;;;;;;11.18;70.59;100651.13;5093383;28;20055;-72
2021/04/19 02:16:39;;;;;;;19.50;17.20;;;;;;;11.19;70.93;100649.97;5093568;28;20056;-72
2021/04/19 02:19:12;;;;;;;20.95;18.10;;;;;;;11.22;71.23;100648.53;5093238;28;20052;-72
2021/04/19 02:21:44;;;;;;;24.10;17.90;;;;;;;11.23;71.52;100659.34;5092652;28;20052;-72
2021/04/19 02:24:16;;;;;;;19.75;17.63;;;;;;;11.23;71.61;100652.97;5084501;28;20052;-72
2021/04/19 02:26:47;;;;;;;21.90;18.23;;;;;;;11.25;71.61;100661.84;5074018;28;20409;-72
2021/04/19 02:29:17;;;;;;;20.58;17.80;;;;;;;11.27;71.43;100656.75;5073309;28;20497;-72
2021/04/19 02:31:49;;;;;;;23.17;18.80;;;;;;;11.29;71.50;100657.28;5073020;28;20417;-72
2021/04/19 02:34:17;;;;;;;22.05;18.00;;;;;;;11.31;71.33;100655.81;5073111;28;20506;-72
2021/04/19 02:36:45;;;;;;;23.50;18.35;;;;;;;11.30;71.43;100659.75;5072545;28;20482;-72
2021/04/19 02:39:14;;;;;;;23.08;20.05;;;;;;;11.33;71.77;100656.31;5083699;28;20048;-72
2021/04/19 02:41:42;;;;;;;24.05;20.23;;;;;;;11.31;71.94;100647.44;5091711;28;20059;-72
2021/04/19 02:44:11;;;;;;;24.33;20.20;;;;;;;11.37;71.40;100648.16;5082264;28;20391;-72
2021/04/19 02:46:39;;;;;;;21.17;18.80;;;;;;;11.37;71.00;100648.97;5072767;28;20052;-72
2021/04/19 02:49:08;;;;;;;24.85;20.40;;;;;;;11.38;70.80;100661.81;5073019;28;20390;-72
2021/04/19 02:51:35;;;;;;;23.90;19.08;;;;;;;11.31;70.76;100646.63;5072771;28;20508;-72
2021/04/19 02:54:03;;;;;;;24.50;19.80;;;;;;;11.30;71.25;100656.97;5072956;28;20059;-72
2021/04/19 02:56:34;;;;;;;24.08;19.77;;;;;;;11.30;71.70;100651.41;5073102;28;20045;-72
2021/04/19 02:59:09;;;;;;;25.98;21.05;;;;;;;11.27;72.16;100654.78;5084536;28;20059;-72
2021/04/19 03:01:40;;;;;;;28.08;20.83;;;;;;;11.27;72.15;100643.66;5093817;28;20048;-72
2021/04/19 03:04:10;;;;;;;22.77;19.38;;;;;;;11.28;72.03;100642.53;5097448;28;20052;-72
2021/04/19 03:06:40;;;;;;;22.80;19.83;;;;;;;11.28;72.42;100647.28;5096938;28;20048;-72
2021/04/19 03:09:07;;;;;;;25.15;20.42;;;;;;;11.28;72.14;100636.94;5097095;28;20118;-72
2021/04/19 03:11:41;;;;;;;26.30;21.85;;;;;;;11.27;72.37;100643.66;5096945;28;20134;-72
2021/04/19 03:14:10;;;;;;;28.65;22.98;;;;;;;11.27;72.37;100635.28;5091177;28;20052;-72
2021/04/19 03:16:41;;;;;;;24.95;21.70;;;;;;;11.29;72.40;100640.53;5076721;28;20052;-72
2021/04/19 03:19:13;;;;;;;29.38;23.40;;;;;;;11.28;72.51;100639.72;5076411;28;20052;-72
2021/04/19 03:21:41;;;;;;;27.27;22.58;;;;;;;11.27;72.86;100637.25;5076666;28;20044;-72
2021/04/19 03:24:11;;;;;;;28.85;22.75;;;;;;;11.18;72.58;100634.38;5083707;28;20052;-72
2021/04/19 03:26:39;;;;;;;26.42;22.52;;;;;;;11.22;72.48;100637.38;5096433;28;20158;-72
2021/04/19 03:29:08;;;;;;;28.00;22.95;;;;;;;11.23;72.71;100623.09;5096485;28;20048;-72
2021/04/19 03:31:39;;;;;;;27.50;21.88;;;;;;;11.21;72.40;100611.44;5096477;28;20052;-71
2021/04/19 03:34:11;;;;;;;26.58;21.33;;;;;;;11.22;72.57;100623.44;5096597;28;20055;-71
2021/04/19 03:36:39;;;;;;;27.60;22.38;;;;;;;11.23;72.41;100623.09;5096264;28;20071;-71
2021/04/19 03:39:08;;;;;;;25.73;21.40;;;;;;;11.18;72.69;100620.44;5086680;28;20498;-71
2021/04/19 03:41:40;;;;;;;24.63;21.05;;;;;;;11.21;72.58;100617.03;5076114;28;20064;-71
2021/04/19 03:44:09;;;;;;;26.80;21.65;;;;;;;11.18;72.63;100621.28;5075816;28;20055;-71
2021/04/19 03:46:37;;;;;;;23.50;20.98;;;;;;;11.16;72.54;100619.94;5076146;28;20449;-71
2021/04/19 03:49:09;;;;;;;22.88;19.73;;;;;;;11.15;72.61;100626.66;5076085;28;20048;-71
2021/04/19 03:51:37;;;;;;;29.83;23.25;;;;;;;11.12;72.20;100611.38;5077475;28;20064;-72
2021/04/19 03:54:05;;;;;;;28.52;21.42;;;;;;;11.12;72.17;100621.72;5076844;28;20049;-72
2021/04/19 03:56:35;;;;;;;26.60;21.00;;;;;;;11.11;72.23;100617.28;5076106;28;20056;-72
2021/04/19 03:59:05;;;;;;;25.95;20.38;;;;;;;11.10;72.55;100612.84;5075803;28;20076;-72
2021/04/19 04:01:36;;;;;;;22.52;20.10;;;;;;;11.09;72.46;100612.00;5075670;28;20045;-72
2021/04/19 04:04:04;;;;;;;25.02;20.45;;;;;;;11.08;72.31;100606.75;5075804;28;20389;-72
2021/04/19 04:06:35;;;;;;;24.33;20.25;;;;;;;11.09;72.28;100608.41;5089632;28;20071;-72
2021/04/19 04:09:02;;;;;;;28.63;22.40;;;;;;;11.08;71.61;100612.31;5095713;28;20066;-72
2021/04/19 04:11:29;;;;;;;28.08;22.10;;;;;;;10.98;72.16;100616.16;5095615;28;20068;-72
2021/04/19 04:13:56;;;;;;;30.75;24.40;;;;;;;10.96;72.22;100616.50;5094796;28;20055;-72
2021/04/19 04:16:23;;;;;;;26.23;21.10;;;;;;;10.97;72.27;100617.31;5095608;28;20052;-72
2021/04/19 04:18:50;;;;;;;29.95;23.20;;;;;;;10.97;72.82;100618.13;5095507;28;20137;-72
2021/04/19 04:21:17;;;;;;;30.08;23.15;;;;;;;10.96;72.67;100610.06;5095720;28;20378;-72
2021/04/19 04:23:45;;;;;;;28.75;22.88;;;;;;;10.93;72.90;100617.09;5089096;28;20474;-72
2021/04/19 04:26:12;;;;;;;33.83;26.13;;;;;;;10.95;73.12;100619.59;5075982;28;20060;-72
2021/04/19 04:28:39;;;;;;;26.20;20.05;;;;;;;10.96;72.98;100621.22;5075552;28;20051;-72
2021/04/19 04:31:07;;;;;;;24.52;20.55;;;;;;;10.98;72.80;100618.94;5075585;28;20056;-71
2021/04/19 04:33:34;;;;;;;27.08;20.95;;;;;;;10.99;73.17;100626.19;5075048;28;20524;-72
2021/04/19 04:36:03;;;;;;;22.10;18.92;;;;;;;11.07;72.40;100621.84;5075168;28;20062;-72
2021/04/19 04:38:32;;;;;;;22.63;18.98;;;;;;;11.10;71.84;100610.88;5079816;28;20048;-72
2021/04/19 04:41:00;;;;;;;22.23;18.38;;;;;;;11.12;71.47;100618.91;5095007;28;20063;-72
2021/04/19 04:43:28;;;;;;;22.35;19.27;;;;;;;11.14;71.46;100614.66;5095174;28;20048;-72
2021/04/19 04:45:58;;;;;;;21.73;19.30;;;;;;;11.17;71.27;100621.56;5095550;28;20056;-72
2021/04/19 04:48:27;;;;;;;;;;;;;;;11.18;71.20;100612.09;5095751;28;20052;-72
2021/04/19 04:50:59;;;;;;;19.17;17.03;;;;;;;11.20;70.87;100614.56;5095189;28;19927;-72
2021/04/19 04:53:33;;;;;;;23.83;19.90;;;;;;;11.22;70.70;100617.88;5093809;28;20486;-72
2021/04/19 04:56:05;;;;;;;21.67;18.58;;;;;;;11.27;70.64;100609.38;5078908;28;20056;-72
2021/04/19 04:58:35;;;;;;;20.77;18.33;;;;;;;11.30;70.39;100617.13;5075374;28;20051;-72
2021/04/19 05:01:04;;;;;;;21.33;18.85;;;;;;;11.30;70.58;100617.94;5074836;28;20052;-72
2021/04/19 05:03:33;;;;;;;23.88;20.38;;;;;;;11.31;70.76;100616.78;5074919;28;20079;-72
2021/04/19 05:06:01;;;;;;;25.05;20.63;;;;;;;11.32;70.72;100626.81;5084068;28;20059;-72
2021/04/19 05:08:29;;;;;;;24.73;20.45;;;;;;;11.35;70.78;100616.97;5094686;28;20055;-72
2021/04/19 05:10:57;;;;;;;24.80;20.98;;;;;;;11.40;70.67;100624.38;5094178;28;20382;-72
2021/04/19 05:13:25;;;;;;;25.25;21.75;;;;;;;11.38;70.74;100625.53;5094595;28;20478;-72
2021/04/19 05:15:52;;;;;;;25.20;22.48;;;;;;;11.43;70.56;100630.16;5094937;28;20048;-72
2021/04/19 05:18:20;;;;;;;23.65;21.00;;;;;;;11.51;70.33;100631.38;5087003;28;20052;-72
2021/04/19 05:20:47;;;;;;;22.65;20.25;;;;;;;11.62;70.07;100638.34;5074238;28;20410;-72
2021/04/19 05:23:16;;;;;;;23.75;20.08;;;;;;;11.70;70.23;100637.59;5074798;28;20055;-72
2021/04/19 05:25:43;;;;;;;25.20;21.30;;;;;;;11.77;70.18;100634.34;5088947;28;20053;-72
2021/04/19 05:28:14;;;;;;;22.17;19.77;;;;;;;11.88;70.08;100640.47;5078896;28;20406;-72
2021/04/19 05:30:43;;;;;;;22.77;20.38;;;;;;;11.93;69.57;100641.22;5094482;28;20052;-72
2021/04/19 05:33:10;;;;;;;20.38;18.17;;;;;;;12.01;69.55;100642.41;5094404;28;20055;-72
2021/04/19 05:35:37;;;;;;;26.02;18.77;;;;;;;12.02;69.25;100635.66;5080354;28;20536;-72
2021/04/19 05:38:06;;;;;;;18.45;16.45;;;;;;;12.07;68.73;100643.06;5073602;28;20053;-72
2021/04/19 05:40:35;;;;;;;17.95;15.88;;;;;;;12.06;68.80;100635.88;5073575;28;20075;-72
2021/04/19 05:43:04;;;;;;;17.23;15.40;;;;;;;12.07;68.52;100641.09;5087349;28;20059;-72
2021/04/19 05:45:31;;;;;;;16.02;13.57;;;;;;;12.13;68.14;100641.81;5094206;28;20386;-72
2021/04/19 05:48:00;;;;;;;16.73;13.60;;;;;;;12.17;68.00;100646.41;5093889;28;20067;-72
2021/04/19 05:50:27;;;;;;;16.38;14.05;;;;;;;12.15;67.87;100643.13;5074970;28;20052;-72
2021/04/19 05:52:56;;;;;;;16.27;14.27;;;;;;;12.18;67.94;100648.06;5079676;28;20074;-72
2021/04/19 05:55:25;;;;;;;14.85;12.73;;;;;;;12.23;67.49;100652.69;5091852;28;20055;-73
2021/04/19 05:57:55;;;;;;;14.45;12.85;;;;;;;12.26;66.20;100659.59;5073458;28;20595;-72
2021/04/19 06:00:23;;;;;;;;;;;;;;;12.27;66.86;100650.91;5078520;28;20470;-73
2021/04/19 06:02:58;;;;;;;12.05;10.75;;;;;;;12.34;66.17;100662.44;5093099;28;19924;-73
2021/04/19 06:05:32;;;;;;;13.75;10.95;;;;;;;12.36;66.33;100662.13;5093279;28;20405;-73
2021/04/19 06:08:06;;;;;;;14.27;12.63;;;;;;;12.43;66.49;100659.69;5093624;28;20052;-73
2021/04/19 06:10:41;;;;;;;14.15;12.75;;;;;;;12.50;65.86;100662.84;5089361;28;20410;-73
2021/04/19 06:13:10;;;;;;;15.15;13.32;;;;;;;12.50;66.11;100662.84;5073190;28;20056;-73
2021/04/19 06:15:37;;;;;;;13.82;12.23;;;;;;;12.50;65.95;100660.03;5073022;28;20053;-74
2021/04/19 06:18:05;;;;;;;12.43;10.80;;;;;;;12.58;65.82;100662.03;5084270;28;20057;-74
2021/04/19 06:20:34;;;;;;;9.70;8.70;;;;;;;12.61;64.61;100668.13;5078104;28;20049;-73
2021/04/19 06:23:01;;;;;;;10.40;9.23;;;;;;;12.68;64.15;100674.91;5090262;28;20398;-73
2021/04/19 06:25:29;;;;;;;9.93;8.38;;;;;;;12.71;63.30;100665.06;5073964;28;20501;-73
2021/04/19 06:28:01;;;;;;;9.73;8.48;;;;;;;12.78;63.07;100666.19;5073267;28;20048;-73
2021/04/19 06:30:33;;;;;;;9.65;8.65;;;;;;;12.87;62.71;100665.41;5072921;28;20379;-73
2021/04/19 06:33:02;;;;;;;11.65;8.88;;;;;;;12.97;62.89;100665.09;5090517;28;20054;-73
2021/04/19 06:35:29;;;;;;;10.10;9.00;;;;;;;13.11;62.89;100659.38;5089560;28;20047;-74
2021/04/19 06:37:57;;;;;;;10.18;8.52;;;;;;;13.30;62.51;100664.69;5091373;28;20063;-74
2021/04/19 06:40:25;;;;;;;10.00;8.80;;;;;;;13.48;62.80;100668.31;5092683;28;20055;-74
2021/04/19 06:42:53;;;;;;;10.10;9.00;;;;;;;13.73;62.54;100664.69;5092879;28;20412;-74
2021/04/19 06:45:21;;;;;;;9.82;8.10;;;;;;;13.96;61.14;100661.66;5093315;28;20488;-73
2021/04/19 06:47:50;;;;;;;9.07;7.57;;;;;;;14.26;59.33;100656.16;5081210;28;20044;-73
2021/04/19 06:50:17;;;;;;;6.65;5.95;;;;;;;14.49;58.52;100656.72;5091007;28;20064;-74
2021/04/19 06:52:47;;;;;;;6.03;5.40;;;;;;;14.76;56.46;100661.06;5093252;28;20052;-73
2021/04/19 06:55:17;;;;;;;6.07;5.13;;;;;;;15.03;55.11;100659.75;5092368;28;20054;-73
2021/04/19 06:57:46;;;;;;;5.68;4.82;;;;;;;15.16;54.74;100657.84;5093175;28;20052;-73
2021/04/19 07:00:14;;;;;;;5.50;4.97;;;;;;;15.20;53.97;100656.84;5092158;28;20044;-73
2021/04/19 07:02:48;;;;;;;6.13;5.05;;;;;;;15.53;53.81;100652.44;5085236;28;20044;-73
2021/04/19 07:05:19;;;;;;;4.60;4.00;;;;;;;15.46;51.99;100649.38;5086348;28;20055;-72
2021/04/19 07:08:00;;;;;;;5.00;4.50;;;;;;;15.40;52.42;100666.41;5082439;28;20052;-73
2021/04/19 07:10:28;;;;;;;5.10;4.60;;;;;;;15.50;53.12;100651.16;5079006;28;20072;-73
2021/04/19 07:12:57;;;;;;;5.13;4.40;;;;;;;15.63;53.40;100649.22;5080916;28;20052;-73
2021/04/19 07:15:27;;;;;;;5.68;4.45;;;;;;;15.64;52.85;100650.84;5074992;28;20055;-72
2021/04/19 07:17:53;;;;;;;;;;;;;;;15.68;51.72;100657.44;5081500;28;20048;-73
2021/04/19 07:20:20;;;;;;;4.22;3.70;;;;;;;15.84;51.68;100660.47;5083754;28;19939;-72
2021/04/19 07:22:48;;;;;;;4.45;3.50;;;;;;;16.05;50.89;100657.59;5073517;28;20044;-72
2021/04/19 07:25:15;;;;;;;5.35;4.18;;;;;;;16.18;50.95;100656.44;5081324;28;20060;-72
2021/04/19 07:27:43;;;;;;;3.78;3.28;;;;;;;16.34;49.31;100650.97;5083885;28;20052;-72
2021/04/19 07:30:11;;;;;;;4.47;3.60;;;;;;;16.41;48.50;100656.03;5090836;28;20044;-72
2021/04/19 07:32:40;;;;;;;3.72;3.05;;;;;;;17.14;47.00;100657.22;5075782;28;20049;-71
2021/04/19 07:35:09;;;;;;;3.35;2.80;;;;;;;17.72;47.61;100657.72;5083689;28;20060;-71
2021/04/19 07:37:37;;;;;;;2.92;2.60;;;;;;;18.85;44.22;100640.59;5083904;28;20048;-72
2021/04/19 07:40:05;;;;;;;3.92;2.92;;;;;;;19.70;42.34;100640.03;5091722;28;20059;-72
2021/04/19 07:42:37;;;;;;;3.53;3.22;;;;;;;21.37;39.66;100640.50;5091020;28;20056;-72
2021/04/19 07:45:06;;;;;;;3.63;2.95;;;;;;;22.41;37.09;100645.38;5088592;28;20052;-73
2021/04/19 07:47:36;;;;;;;2.60;2.22;;;;;;;23.81;34.41;100637.81;5071339;28;20052;-73
2021/04/19 07:50:15;;;;;;;2.60;2.22;;;;;;;24.77;32.32;100644.03;5093185;28;20059;-72
2021/04/19 07:52:54;;;;;;;4.47;2.10;;;;;;;25.18;30.11;100635.84;5086634;28;20055;-72
2021/04/19 07:55:23;;;;;;;2.38;2.10;;;;;;;25.17;29.94;100639.09;5086501;28;20075;-72
2021/04/19 07:57:51;;;;;;;4.07;2.47;;;;;;;25.05;30.24;100635.47;5091167;28;20082;-74
2021/04/19 08:00:30;;;;;;;3.05;2.00;;;;;;;24.56;30.79;100639.16;5094289;28;20043;-73
2021/04/19 08:03:02;;;;;;;3.67;2.67;;;;;;;25.90;29.44;100622.16;5094679;28;20048;-73
2021/04/19 08:05:37;;;;;;;3.13;1.95;;;;;;;26.95;27.53;100633.63;5094287;28;20409;-73
2021/04/19 08:08:05;;;;;;;2.90;1.85;;;;;;;27.38;26.34;100635.22;5088641;28;20048;-74
2021/04/19 08:10:33;;;;;;;2.75;1.60;;;;;;;28.46;23.94;100634.59;5078976;28;20058;-73
2021/04/19 08:13:09;;;;;;;3.28;2.03;;;;;;;28.61;24.13;100635.19;5074258;28;20052;-73
2021/04/19 08:15:38;;;;;;;4.00;2.33;;;;;;;27.75;24.60;100634.38;5078190;28;20052;-73
2021/04/19 08:18:07;;;;;;;2.80;2.20;;;;;;;26.43;27.21;100639.34;5093230;28;20079;-73
2021/04/19 08:20:35;;;;;;;1.95;1.40;;;;;;;25.34;29.07;100641.13;5092705;28;20354;-72
2021/04/19 08:23:10;;;;;;;2.72;2.28;;;;;;;24.23;29.90;100641.97;5085138;28;20052;-73
2021/04/19 08:25:43;;;;;;;3.55;1.90;;;;;;;23.31;32.40;100637.56;5076929;28;20064;-72
2021/04/19 08:28:13;;;;;;;2.97;1.90;;;;;;;22.57;33.01;100636.59;5086640;28;20063;-72
2021/04/19 08:30:44;;;;;;;2.80;1.70;;;;;;;21.83;34.53;100649.59;5091957;28;20063;-73
2021/04/19 08:33:12;;;;;;;3.92;2.33;;;;;;;21.69;35.91;100640.91;5073937;28;20056;-72
2021/04/19 08:35:40;;;;;;;4.68;2.80;;;;;;;22.14;34.34;100644.69;5075502;28;20060;-73
2021/04/19 08:38:08;;;;;;;2.83;2.17;;;;;;;22.11;34.88;100645.44;5094101;28;20044;-73
2021/04/19 08:40:37;;;;;;;3.35;2.08;;;;;;;22.26;33.44;100647.28;5093171;28;20059;-73
2021/04/19 08:43:08;;;;;;;4.25;2.60;;;;;;;22.16;34.03;100641.47;5092288;28;20056;-72
2021/04/19 08:45:39;;;;;;;3.95;2.75;;;;;;;21.55;35.57;100652.09;5093698;28;20056;-72
2021/04/19 08:48:10;;;;;;;4.20;2.70;;;;;;;20.93;36.60;100650.38;5094304;28;20044;-72
2021/04/19 08:50:38;;;;;;;3.47;2.88;;;;;;;20.51;37.52;100645.63;5092931;28;20051;-72
2021/04/19 08:53:08;;;;;;;3.90;3.50;;;;;;;20.36;38.17;100650.22;5085590;28;20052;-72
2021/04/19 08:55:37;;;;;;;4.30;3.70;;;;;;;20.36;38.48;100646.56;5088012;28;20071;-72
2021/04/19 08:58:09;;;;;;;4.15;3.40;;;;;;;21.88;35.75;100643.59;5079848;28;20063;-72
2021/04/19 09:00:37;;;;;;;7.00;4.22;;;;;;;22.28;35.37;100641.22;5082480;28;20056;-72
2021/04/19 09:03:05;;;;;;;6.47;4.10;;;;;;;22.45;34.63;100636.91;5093692;28;20052;-72
2021/04/19 09:05:36;;;;;;;4.20;3.80;;;;;;;23.98;32.10;100635.38;5085773;28;20478;-72
2021/04/19 09:08:05;;;;;;;4.68;3.10;;;;;;;26.35;28.48;100626.34;5072801;28;20052;-73
2021/04/19 09:10:51;;;;;;;4.32;3.22;;;;;;;26.42;27.44;100629.19;5078495;28;20520;-73
2021/04/19 09:13:32;;;;;;;3.10;2.60;;;;;;;25.69;27.43;100637.31;5073820;28;20064;-73
2021/04/19 09:16:17;;;;;;;3.90;3.10;;;;;;;24.57;28.31;100638.78;5082688;28;20056;-73
2021/04/19 09:18:46;;;;;;;4.85;3.30;;;;;;;23.95;29.39;100631.31;5087364;28;20052;-73
2021/04/19 09:21:48;;;;;;;3.83;3.30;;;;;;;23.32;30.33;100621.31;5083837;28;20062;-73
2021/04/19 09:24:19;;;;;;;3.28;2.97;;;;;;;22.88;31.27;100640.88;5078956;28;20056;-73
2021/04/19 09:26:52;;;;;;;3.38;3.08;;;;;;;23.99;30.58;100639.88;5075183;28;20048;-74
2021/04/19 09:29:47;;;;;;;4.05;3.63;;;;;;;26.77;25.15;100638.69;5078298;28;20056;-74
2021/04/19 09:32:25;;;;;;;3.80;3.50;;;;;;;29.35;20.79;100618.66;5083068;28;20049;-73
2021/04/19 09:34:54;;;;;;;3.55;3.15;;;;;;;31.66;18.29;100626.19;5075083;28;20067;-73
2021/04/19 09:37:23;;;;;;;;;;;;;;;30.11;19.64;100629.38;5087619;28;20067;-74
2021/04/19 09:39:53;;;;;;;3.55;3.25;;;;;;;33.52;15.59;100624.94;5092507;28;20285;-73
2021/04/19 09:43:02;;;;;;;3.28;3.00;;;;;;;36.11;15.07;100616.78;5092811;28;20060;-73
2021/04/19 09:45:55;;;;;;;4.30;3.33;;;;;;;38.22;13.35;100619.34;5082161;28;20421;-74
2021/04/19 09:48:39;;;;;;;3.40;3.08;;;;;;;37.55;12.55;100622.63;5086534;28;20043;-74
2021/04/19 09:51:12;;;;;;;3.53;2.92;;;;;;;36.17;12.03;100614.84;5077319;28;20044;-73
2021/04/19 09:53:44;;;;;;;3.42;3.10;;;;;;;33.67;14.33;100627.31;5072338;28;20494;-71
2021/04/19 09:56:12;;;;;;;3.75;3.42;;;;;;;31.57;16.23;100626.03;5084019;28;20162;-71
2021/04/19 09:58:40;;;;;;;3.75;3.10;;;;;;;30.15;17.95;100632.97;5074524;28;20056;-72
2021/04/19 10:01:07;;;;;;;3.78;3.38;;;;;;;29.14;19.88;100628.50;5090254;28;20493;-73
2021/04/19 10:03:35;;;;;;;5.50;3.30;;;;;;;27.92;20.93;100627.59;5081680;28;20049;-73
2021/04/19 10:06:03;;;;;;;3.75;3.35;;;;;;;26.44;23.47;100632.41;5074993;28;20048;-72
2021/04/19 10:08:31;;;;;;;5.78;4.00;;;;;;;25.39;25.17;100631.31;5090216;28;20059;-73
2021/04/19 10:11:02;;;;;;;5.30;3.90;;;;;;;24.39;26.01;100632.22;5089638;28;20044;-73
2021/04/19 10:13:31;;;;;;;4.75;3.85;;;;;;;23.37;27.52;100627.44;5077469;28;20063;-71
2021/04/19 10:16:03;;;;;;;4.93;4.00;;;;;;;22.60;28.28;100626.50;5077237;28;20118;-72
2021/04/19 10:18:33;;;;;;;5.22;4.50;;;;;;;22.03;30.64;100627.56;5092048;28;20052;-72
2021/04/19 10:21:00;;;;;;;4.63;4.10;;;;;;;21.71;30.73;100623.53;5081672;28;20405;-72
2021/04/19 10:23:39;;;;;;;5.30;4.13;;;;;;;21.24;31.74;100625.75;5090579;28;20143;-71
2021/04/19 10:26:07;;;;;;;;;;;;;;;20.92;32.68;100626.09;5072601;28;20055;-71
2021/04/19 10:28:35;;;;;;;6.82;6.13;;;;;;;20.45;35.92;100636.66;5071963;28;20388;-72
2021/04/19 10:31:10;;;;;;;7.25;6.55;;;;;;;20.17;36.39;100636.13;5071863;28;20048;-72
2021/04/19 10:33:38;;;;;;;6.50;5.70;;;;;;;20.01;36.76;100633.41;5072544;28;20048;-72
2021/04/19 10:36:16;;;;;;;8.48;6.32;;;;;;;19.84;37.54;100624.22;5071404;28;20057;-72
2021/04/19 10:38:44;;;;;;;7.03;5.47;;;;;;;19.90;37.20;100629.56;5078749;28;20048;-73
2021/04/19 10:41:14;;;;;;;6.45;5.47;;;;;;;20.01;37.10;100622.94;5088698;28;21040;-73
2021/04/19 10:43:43;;;;;;;6.03;5.25;;;;;;;20.13;36.70;100632.41;5089748;28;20052;-73
2021/04/19 10:46:21;;;;;;;6.05;5.22;;;;;;;20.27;35.94;100627.03;5088446;28;20369;-73
2021/04/19 10:48:48;;;;;;;5.60;5.00;;;;;;;20.22;35.70;100627.31;5078098;28;20382;-73
2021/04/19 10:51:17;;;;;;;5.57;5.07;;;;;;;20.47;34.99;100620.13;5080976;28;20054;-73
2021/04/19 10:53:45;;;;;;;5.72;5.13;;;;;;;20.87;33.82;100621.59;5074722;28;20055;-74
2021/04/19 10:56:21;;;;;;;5.90;5.30;;;;;;;22.08;33.10;100623.53;5091288;28;20055;-74
2021/04/19 10:58:48;;;;;;;8.15;5.05;;;;;;;24.13;29.83;100617.16;5091493;28;20048;-74
2021/04/19 11:01:21;;;;;;;5.45;4.95;;;;;;;24.29;28.42;100617.53;5091171;28;20055;-73
2021/04/19 11:03:49;;;;;;;6.32;5.30;;;;;;;24.11;28.67;100609.00;5071587;28;20086;-74
2021/04/19 11:06:17;;;;;;;6.30;5.47;;;;;;;26.10;27.09;100595.94;5075647;28;20048;-73
2021/04/19 11:09:07;;;;;;;6.50;5.68;;;;;;;27.06;24.60;100605.72;5091370;28;20056;-74
2021/04/19 11:11:42;;;;;;;5.70;4.93;;;;;;;27.72;23.77;100593.09;5086457;28;20051;-74
2021/04/19 11:14:14;;;;;;;7.72;5.70;;;;;;;31.10;20.61;100595.69;5091195;28;20055;-74
2021/04/19 11:16:56;;;;;;;7.70;5.75;;;;;;;31.30;18.96;100594.72;5078583;28;20049;-74
2021/04/19 11:19:41;;;;;;;6.63;5.20;;;;;;;29.93;20.32;100586.69;5085924;28;20074;-74
2021/04/19 11:22:26;;;;;;;5.75;5.25;;;;;;;31.49;17.67;100590.88;5091450;28;20063;-75
2021/04/19 11:24:53;;;;;;;5.00;4.15;;;;;;;29.62;19.33;100594.75;5090385;28;20517;-74
2021/04/19 11:27:25;;;;;;;5.35;4.85;;;;;;;28.47;20.61;100593.22;5076233;28;20067;-75
2021/04/19 11:29:54;;;;;;;4.93;4.50;;;;;;;27.44;20.98;100597.13;5081073;28;20516;-74
2021/04/19 11:32:29;;;;;;;5.35;4.50;;;;;;;26.83;21.66;100585.56;5074846;28;20075;-74